sensor_id;sensor_type;location;lat;lon;timestamp;P1;durP1;ratioP1;P2;durP2;ratioP2
8042;SDS011;4064;48.132;11.366;2024-02-26T00:02:18;1.97;;;1.43;;
8042;SDS011;4064;48.132;11.366;2024-02-26T00:04:44;2.70;;;2.03;;
8042;SDS011;4064;48.132;11.366;2024-02-26T00:07:09;1.87;;;1.73;;
8042;SDS011;4064;48.132;11.366;2024-02-26T00:09:35;1.80;;;1.60;;
8042;SDS011;4064;48.132;11.366;2024-02-26T00:12:02;2.05;;;1.58;;
8042;SDS011;4064;48.132;11.366;2024-02-26T00:14:29;1.55;;;1.40;;
8042;SDS011;4064;48.132;11.366;2024-02-26T00:16:55;1.67;;;1.58;;
8042;SDS011;4064;48.132;11.366;2024-02-26T00:19:20;1.40;;;1.30;;
8042;SDS011;4064;48.132;11.366;2024-02-26T00:21:46;1.80;;;1.70;;
8042;SDS011;4064;48.132;11.366;2024-02-26T00:24:12;2.30;;;1.60;;
8042;SDS011;4064;48.132;11.366;2024-02-26T00:26:38;2.87;;;2.13;;
8042;SDS011;4064;48.132;11.366;2024-02-26T00:29:04;2.33;;;1.87;;
8042;SDS011;4064;48.132;11.366;2024-02-26T00:31:29;2.70;;;1.90;;
8042;SDS011;4064;48.132;11.366;2024-02-26T00:33:55;3.17;;;2.07;;
8042;SDS011;4064;48.132;11.366;2024-02-26T00:36:21;2.63;;;2.27;;
8042;SDS011;4064;48.132;11.366;2024-02-26T00:38:46;2.70;;;2.50;;
8042;SDS011;4064;48.132;11.366;2024-02-26T00:41:16;2.40;;;2.20;;
8042;SDS011;4064;48.132;11.366;2024-02-26T00:43:42;2.53;;;2.28;;
8042;SDS011;4064;48.132;11.366;2024-02-26T00:46:07;2.80;;;2.47;;
8042;SDS011;4064;48.132;11.366;2024-02-26T00:48:33;4.47;;;3.93;;
8042;SDS011;4064;48.132;11.366;2024-02-26T00:50:58;3.40;;;2.83;;
8042;SDS011;4064;48.132;11.366;2024-02-26T00:53:24;3.87;;;2.40;;
8042;SDS011;4064;48.132;11.366;2024-02-26T00:55:50;4.60;;;2.40;;
8042;SDS011;4064;48.132;11.366;2024-02-26T00:58:16;3.83;;;2.70;;
8042;SDS011;4064;48.132;11.366;2024-02-26T01:00:41;2.77;;;2.40;;
8042;SDS011;4064;48.132;11.366;2024-02-26T01:03:07;2.07;;;1.87;;
8042;SDS011;4064;48.132;11.366;2024-02-26T01:05:33;3.40;;;2.33;;
8042;SDS011;4064;48.132;11.366;2024-02-26T01:07:58;2.57;;;2.37;;
8042;SDS011;4064;48.132;11.366;2024-02-26T01:10:24;2.93;;;2.23;;
8042;SDS011;4064;48.132;11.366;2024-02-26T01:12:50;2.50;;;2.00;;
8042;SDS011;4064;48.132;11.366;2024-02-26T01:15:15;6.47;;;2.57;;
8042;SDS011;4064;48.132;11.366;2024-02-26T01:17:41;3.90;;;2.00;;
8042;SDS011;4064;48.132;11.366;2024-02-26T01:20:06;2.30;;;2.10;;
8042;SDS011;4064;48.132;11.366;2024-02-26T01:22:33;2.35;;;2.10;;
8042;SDS011;4064;48.132;11.366;2024-02-26T01:24:59;2.00;;;1.80;;
8042;SDS011;4064;48.132;11.366;2024-02-26T01:27:25;2.60;;;2.10;;
8042;SDS011;4064;48.132;11.366;2024-02-26T01:29:52;2.45;;;2.25;;
8042;SDS011;4064;48.132;11.366;2024-02-26T01:32:17;2.17;;;1.83;;
8042;SDS011;4064;48.132;11.366;2024-02-26T01:34:44;2.17;;;1.92;;
8042;SDS011;4064;48.132;11.366;2024-02-26T01:37:10;2.70;;;2.20;;
8042;SDS011;4064;48.132;11.366;2024-02-26T01:39:36;2.60;;;2.20;;
8042;SDS011;4064;48.132;11.366;2024-02-26T01:42:01;2.63;;;2.00;;
8042;SDS011;4064;48.132;11.366;2024-02-26T01:44:27;2.60;;;2.20;;
8042;SDS011;4064;48.132;11.366;2024-02-26T01:46:53;2.97;;;2.10;;
8042;SDS011;4064;48.132;11.366;2024-02-26T01:49:19;3.72;;;2.40;;
8042;SDS011;4064;48.132;11.366;2024-02-26T01:51:46;3.30;;;1.67;;
8042;SDS011;4064;48.132;11.366;2024-02-26T01:54:12;3.83;;;2.40;;
8042;SDS011;4064;48.132;11.366;2024-02-26T01:56:38;2.05;;;1.88;;
8042;SDS011;4064;48.132;11.366;2024-02-26T01:59:05;2.72;;;2.20;;
8042;SDS011;4064;48.132;11.366;2024-02-26T02:01:32;1.98;;;1.77;;
8042;SDS011;4064;48.132;11.366;2024-02-26T02:03:59;2.10;;;1.90;;
8042;SDS011;4064;48.132;11.366;2024-02-26T02:06:26;2.00;;;1.60;;
8042;SDS011;4064;48.132;11.366;2024-02-26T02:08:53;2.38;;;1.90;;
8042;SDS011;4064;48.132;11.366;2024-02-26T02:11:19;2.00;;;1.90;;
8042;SDS011;4064;48.132;11.366;2024-02-26T02:13:45;2.27;;;1.70;;
8042;SDS011;4064;48.132;11.366;2024-02-26T02:16:11;2.17;;;1.97;;
8042;SDS011;4064;48.132;11.366;2024-02-26T02:18:37;2.10;;;1.90;;
8042;SDS011;4064;48.132;11.366;2024-02-26T02:21:02;2.20;;;1.80;;
8042;SDS011;4064;48.132;11.366;2024-02-26T02:23:28;2.20;;;2.00;;
8042;SDS011;4064;48.132;11.366;2024-02-26T02:25:54;3.70;;;2.20;;
8042;SDS011;4064;48.132;11.366;2024-02-26T02:28:22;2.40;;;2.15;;
8042;SDS011;4064;48.132;11.366;2024-02-26T02:30:50;1.88;;;1.77;;
8042;SDS011;4064;48.132;11.366;2024-02-26T02:33:16;1.70;;;1.53;;
8042;SDS011;4064;48.132;11.366;2024-02-26T02:35:42;2.00;;;1.80;;
8042;SDS011;4064;48.132;11.366;2024-02-26T02:38:07;2.43;;;2.00;;
8042;SDS011;4064;48.132;11.366;2024-02-26T02:40:33;3.00;;;2.30;;
8042;SDS011;4064;48.132;11.366;2024-02-26T02:42:59;2.47;;;2.27;;
8042;SDS011;4064;48.132;11.366;2024-02-26T02:45:26;2.83;;;2.08;;
8042;SDS011;4064;48.132;11.366;2024-02-26T02:47:52;2.00;;;1.80;;
8042;SDS011;4064;48.132;11.366;2024-02-26T02:50:18;4.10;;;1.93;;
8042;SDS011;4064;48.132;11.366;2024-02-26T02:52:43;2.80;;;1.90;;
8042;SDS011;4064;48.132;11.366;2024-02-26T02:55:09;2.30;;;2.00;;
8042;SDS011;4064;48.132;11.366;2024-02-26T02:57:34;2.90;;;2.27;;
8042;SDS011;4064;48.132;11.366;2024-02-26T03:00:06;2.25;;;2.05;;
8042;SDS011;4064;48.132;11.366;2024-02-26T03:02:35;2.30;;;2.10;;
8042;SDS011;4064;48.132;11.366;2024-02-26T03:05:04;5.13;;;2.50;;
8042;SDS011;4064;48.132;11.366;2024-02-26T03:07:30;2.03;;;1.80;;
8042;SDS011;4064;48.132;11.366;2024-02-26T03:09:55;4.63;;;2.33;;
8042;SDS011;4064;48.132;11.366;2024-02-26T03:12:21;2.87;;;2.13;;
8042;SDS011;4064;48.132;11.366;2024-02-26T03:14:47;2.83;;;2.10;;
8042;SDS011;4064;48.132;11.366;2024-02-26T03:17:12;2.13;;;1.93;;
8042;SDS011;4064;48.132;11.366;2024-02-26T03:19:38;2.80;;;2.10;;
8042;SDS011;4064;48.132;11.366;2024-02-26T03:22:03;3.20;;;2.60;;
8042;SDS011;4064;48.132;11.366;2024-02-26T03:24:29;3.90;;;2.00;;
8042;SDS011;4064;48.132;11.366;2024-02-26T03:26:55;2.70;;;2.30;;
8042;SDS011;4064;48.132;11.366;2024-02-26T03:29:21;3.53;;;2.43;;
8042;SDS011;4064;48.132;11.366;2024-02-26T03:31:46;2.93;;;2.60;;
8042;SDS011;4064;48.132;11.366;2024-02-26T03:34:12;4.33;;;2.40;;
8042;SDS011;4064;48.132;11.366;2024-02-26T03:36:39;4.20;;;2.50;;
8042;SDS011;4064;48.132;11.366;2024-02-26T03:39:05;3.30;;;3.00;;
8042;SDS011;4064;48.132;11.366;2024-02-26T03:41:32;2.53;;;2.33;;
8042;SDS011;4064;48.132;11.366;2024-02-26T03:43:58;2.88;;;2.67;;
8042;SDS011;4064;48.132;11.366;2024-02-26T03:46:24;2.93;;;2.73;;
8042;SDS011;4064;48.132;11.366;2024-02-26T03:48:50;4.40;;;3.20;;
8042;SDS011;4064;48.132;11.366;2024-02-26T03:51:15;3.37;;;2.67;;
8042;SDS011;4064;48.132;11.366;2024-02-26T03:53:41;2.77;;;2.50;;
8042;SDS011;4064;48.132;11.366;2024-02-26T03:56:06;2.80;;;2.60;;
8042;SDS011;4064;48.132;11.366;2024-02-26T03:58:32;2.70;;;2.10;;
8042;SDS011;4064;48.132;11.366;2024-02-26T04:01:01;3.10;;;2.60;;
8042;SDS011;4064;48.132;11.366;2024-02-26T04:03:27;3.25;;;2.92;;
8042;SDS011;4064;48.132;11.366;2024-02-26T04:05:52;3.57;;;2.97;;
8042;SDS011;4064;48.132;11.366;2024-02-26T04:08:18;2.63;;;2.43;;
8042;SDS011;4064;48.132;11.366;2024-02-26T04:10:43;3.13;;;2.83;;
8042;SDS011;4064;48.132;11.366;2024-02-26T04:13:09;3.17;;;2.83;;
8042;SDS011;4064;48.132;11.366;2024-02-26T04:15:35;4.30;;;3.00;;
8042;SDS011;4064;48.132;11.366;2024-02-26T04:18:00;5.27;;;3.30;;
8042;SDS011;4064;48.132;11.366;2024-02-26T04:20:27;3.35;;;2.70;;
8042;SDS011;4064;48.132;11.366;2024-02-26T04:22:53;3.57;;;3.23;;
8042;SDS011;4064;48.132;11.366;2024-02-26T04:25:18;3.27;;;2.97;;
8042;SDS011;4064;48.132;11.366;2024-02-26T04:27:44;3.70;;;2.70;;
8042;SDS011;4064;48.132;11.366;2024-02-26T04:30:10;3.53;;;2.97;;
8042;SDS011;4064;48.132;11.366;2024-02-26T04:32:36;4.13;;;3.33;;
8042;SDS011;4064;48.132;11.366;2024-02-26T04:35:04;5.93;;;3.60;;
8042;SDS011;4064;48.132;11.366;2024-02-26T04:37:30;3.70;;;2.60;;
8042;SDS011;4064;48.132;11.366;2024-02-26T04:39:59;3.67;;;2.33;;
8042;SDS011;4064;48.132;11.366;2024-02-26T04:42:26;2.75;;;2.53;;
8042;SDS011;4064;48.132;11.366;2024-02-26T04:44:52;4.18;;;3.40;;
8042;SDS011;4064;48.132;11.366;2024-02-26T04:47:19;4.22;;;3.33;;
8042;SDS011;4064;48.132;11.366;2024-02-26T04:49:44;2.80;;;2.50;;
8042;SDS011;4064;48.132;11.366;2024-02-26T04:52:11;3.90;;;2.93;;
8042;SDS011;4064;48.132;11.366;2024-02-26T04:54:36;2.35;;;2.15;;
8042;SDS011;4064;48.132;11.366;2024-02-26T04:57:02;3.27;;;3.07;;
8042;SDS011;4064;48.132;11.366;2024-02-26T04:59:28;3.47;;;2.50;;
8042;SDS011;4064;48.132;11.366;2024-02-26T05:01:53;5.43;;;3.00;;
8042;SDS011;4064;48.132;11.366;2024-02-26T05:04:19;3.53;;;2.80;;
8042;SDS011;4064;48.132;11.366;2024-02-26T05:06:45;3.60;;;3.10;;
8042;SDS011;4064;48.132;11.366;2024-02-26T05:09:10;7.03;;;2.40;;
8042;SDS011;4064;48.132;11.366;2024-02-26T05:11:36;3.03;;;2.67;;
8042;SDS011;4064;48.132;11.366;2024-02-26T05:14:01;3.73;;;3.17;;
8042;SDS011;4064;48.132;11.366;2024-02-26T05:16:27;3.10;;;2.83;;
8042;SDS011;4064;48.132;11.366;2024-02-26T05:18:55;3.33;;;2.78;;
8042;SDS011;4064;48.132;11.366;2024-02-26T05:21:20;3.30;;;2.70;;
8042;SDS011;4064;48.132;11.366;2024-02-26T05:23:46;3.90;;;3.10;;
8042;SDS011;4064;48.132;11.366;2024-02-26T05:26:12;3.87;;;2.80;;
8042;SDS011;4064;48.132;11.366;2024-02-26T05:28:43;3.97;;;3.13;;
8042;SDS011;4064;48.132;11.366;2024-02-26T05:31:12;7.50;;;3.20;;
8042;SDS011;4064;48.132;11.366;2024-02-26T05:33:38;5.20;;;3.25;;
8042;SDS011;4064;48.132;11.366;2024-02-26T05:36:04;4.17;;;3.00;;
8042;SDS011;4064;48.132;11.366;2024-02-26T05:38:30;3.67;;;3.10;;
8042;SDS011;4064;48.132;11.366;2024-02-26T05:40:56;3.88;;;3.13;;
8042;SDS011;4064;48.132;11.366;2024-02-26T05:43:28;3.38;;;3.08;;
8042;SDS011;4064;48.132;11.366;2024-02-26T05:45:54;3.50;;;2.80;;
8042;SDS011;4064;48.132;11.366;2024-02-26T05:48:20;4.80;;;2.70;;
8042;SDS011;4064;48.132;11.366;2024-02-26T05:50:46;3.78;;;2.90;;
8042;SDS011;4064;48.132;11.366;2024-02-26T05:53:12;4.53;;;3.50;;
8042;SDS011;4064;48.132;11.366;2024-02-26T05:55:37;4.43;;;2.90;;
8042;SDS011;4064;48.132;11.366;2024-02-26T05:58:03;2.90;;;2.47;;
8042;SDS011;4064;48.132;11.366;2024-02-26T06:00:29;2.80;;;2.60;;
8042;SDS011;4064;48.132;11.366;2024-02-26T06:02:55;3.40;;;3.00;;
8042;SDS011;4064;48.132;11.366;2024-02-26T06:05:21;5.30;;;2.90;;
8042;SDS011;4064;48.132;11.366;2024-02-26T06:07:46;4.10;;;3.30;;
8042;SDS011;4064;48.132;11.366;2024-02-26T06:10:12;4.20;;;3.80;;
8042;SDS011;4064;48.132;11.366;2024-02-26T06:12:38;3.72;;;2.70;;
8042;SDS011;4064;48.132;11.366;2024-02-26T06:15:05;4.68;;;3.35;;
8042;SDS011;4064;48.132;11.366;2024-02-26T06:17:31;5.32;;;3.92;;
8042;SDS011;4064;48.132;11.366;2024-02-26T06:19:57;5.53;;;3.17;;
8042;SDS011;4064;48.132;11.366;2024-02-26T06:22:24;4.88;;;4.45;;
8042;SDS011;4064;48.132;11.366;2024-02-26T06:24:50;4.93;;;4.17;;
8042;SDS011;4064;48.132;11.366;2024-02-26T06:27:15;4.17;;;3.27;;
8042;SDS011;4064;48.132;11.366;2024-02-26T06:29:41;5.10;;;3.93;;
8042;SDS011;4064;48.132;11.366;2024-02-26T06:32:07;5.27;;;4.77;;
8042;SDS011;4064;48.132;11.366;2024-02-26T06:34:32;8.40;;;5.43;;
8042;SDS011;4064;48.132;11.366;2024-02-26T06:36:58;9.83;;;6.27;;
8042;SDS011;4064;48.132;11.366;2024-02-26T06:39:23;13.17;;;5.83;;
8042;SDS011;4064;48.132;11.366;2024-02-26T06:41:49;5.60;;;5.00;;
8042;SDS011;4064;48.132;11.366;2024-02-26T06:44:14;4.83;;;3.70;;
8042;SDS011;4064;48.132;11.366;2024-02-26T06:46:40;4.33;;;3.40;;
8042;SDS011;4064;48.132;11.366;2024-02-26T06:49:06;4.47;;;3.60;;
8042;SDS011;4064;48.132;11.366;2024-02-26T06:51:31;5.10;;;3.93;;
8042;SDS011;4064;48.132;11.366;2024-02-26T06:53:57;5.23;;;3.87;;
8042;SDS011;4064;48.132;11.366;2024-02-26T06:56:23;4.13;;;3.83;;
8042;SDS011;4064;48.132;11.366;2024-02-26T06:58:48;6.70;;;3.10;;
8042;SDS011;4064;48.132;11.366;2024-02-26T07:01:14;5.13;;;4.40;;
8042;SDS011;4064;48.132;11.366;2024-02-26T07:03:40;4.53;;;3.60;;
8042;SDS011;4064;48.132;11.366;2024-02-26T07:06:06;5.43;;;3.50;;
8042;SDS011;4064;48.132;11.366;2024-02-26T07:08:31;3.87;;;3.30;;
8042;SDS011;4064;48.132;11.366;2024-02-26T07:10:57;5.77;;;4.40;;
8042;SDS011;4064;48.132;11.366;2024-02-26T07:13:23;5.53;;;3.53;;
8042;SDS011;4064;48.132;11.366;2024-02-26T07:15:49;11.00;;;4.77;;
8042;SDS011;4064;48.132;11.366;2024-02-26T07:18:14;8.63;;;4.60;;
8042;SDS011;4064;48.132;11.366;2024-02-26T07:20:40;7.10;;;4.30;;
8042;SDS011;4064;48.132;11.366;2024-02-26T07:23:05;5.07;;;4.57;;
8042;SDS011;4064;48.132;11.366;2024-02-26T07:25:31;5.05;;;4.65;;
8042;SDS011;4064;48.132;11.366;2024-02-26T07:27:57;4.80;;;4.30;;
8042;SDS011;4064;48.132;11.366;2024-02-26T07:30:23;6.63;;;5.10;;
8042;SDS011;4064;48.132;11.366;2024-02-26T07:32:49;7.38;;;5.60;;
8042;SDS011;4064;48.132;11.366;2024-02-26T07:35:15;5.40;;;4.90;;
8042;SDS011;4064;48.132;11.366;2024-02-26T07:37:42;8.27;;;4.85;;
8042;SDS011;4064;48.132;11.366;2024-02-26T07:40:08;8.33;;;6.00;;
8042;SDS011;4064;48.132;11.366;2024-02-26T07:42:34;7.00;;;5.00;;
8042;SDS011;4064;48.132;11.366;2024-02-26T07:44:59;6.50;;;5.67;;
8042;SDS011;4064;48.132;11.366;2024-02-26T07:47:25;11.33;;;5.93;;
8042;SDS011;4064;48.132;11.366;2024-02-26T07:49:51;14.77;;;6.13;;
8042;SDS011;4064;48.132;11.366;2024-02-26T07:52:16;9.87;;;5.63;;
8042;SDS011;4064;48.132;11.366;2024-02-26T07:54:42;9.83;;;5.97;;
8042;SDS011;4064;48.132;11.366;2024-02-26T07:57:08;7.97;;;5.17;;
8042;SDS011;4064;48.132;11.366;2024-02-26T07:59:33;8.90;;;5.27;;
8042;SDS011;4064;48.132;11.366;2024-02-26T08:01:59;10.73;;;6.43;;
8042;SDS011;4064;48.132;11.366;2024-02-26T08:04:25;7.75;;;5.47;;
8042;SDS011;4064;48.132;11.366;2024-02-26T08:06:51;10.45;;;5.93;;
8042;SDS011;4064;48.132;11.366;2024-02-26T08:09:17;7.70;;;6.13;;
8042;SDS011;4064;48.132;11.366;2024-02-26T08:11:42;6.90;;;5.80;;
8042;SDS011;4064;48.132;11.366;2024-02-26T08:14:08;7.67;;;5.70;;
8042;SDS011;4064;48.132;11.366;2024-02-26T08:16:34;5.73;;;5.23;;
8042;SDS011;4064;48.132;11.366;2024-02-26T08:18:59;8.97;;;5.27;;
8042;SDS011;4064;48.132;11.366;2024-02-26T08:21:25;13.67;;;5.67;;
8042;SDS011;4064;48.132;11.366;2024-02-26T08:23:50;9.63;;;5.90;;
8042;SDS011;4064;48.132;11.366;2024-02-26T08:26:16;10.13;;;5.90;;
8042;SDS011;4064;48.132;11.366;2024-02-26T08:28:41;5.10;;;4.60;;
8042;SDS011;4064;48.132;11.366;2024-02-26T08:31:07;6.93;;;4.93;;
8042;SDS011;4064;48.132;11.366;2024-02-26T08:33:33;7.83;;;5.50;;
8042;SDS011;4064;48.132;11.366;2024-02-26T08:36:03;8.13;;;5.97;;
8042;SDS011;4064;48.132;11.366;2024-02-26T08:38:32;8.93;;;6.50;;
8042;SDS011;4064;48.132;11.366;2024-02-26T08:40:59;7.80;;;7.00;;
8042;SDS011;4064;48.132;11.366;2024-02-26T08:43:26;13.37;;;6.70;;
8042;SDS011;4064;48.132;11.366;2024-02-26T08:45:52;8.30;;;6.60;;
8042;SDS011;4064;48.132;11.366;2024-02-26T08:48:17;17.47;;;5.37;;
8042;SDS011;4064;48.132;11.366;2024-02-26T08:50:43;9.33;;;6.17;;
8042;SDS011;4064;48.132;11.366;2024-02-26T08:53:09;11.03;;;5.97;;
8042;SDS011;4064;48.132;11.366;2024-02-26T08:55:34;6.90;;;5.93;;
8042;SDS011;4064;48.132;11.366;2024-02-26T08:58:00;7.80;;;5.90;;
8042;SDS011;4064;48.132;11.366;2024-02-26T09:00:25;14.60;;;5.90;;
8042;SDS011;4064;48.132;11.366;2024-02-26T09:02:51;9.50;;;5.77;;
8042;SDS011;4064;48.132;11.366;2024-02-26T09:05:17;10.37;;;6.47;;
8042;SDS011;4064;48.132;11.366;2024-02-26T09:07:42;7.80;;;6.47;;
8042;SDS011;4064;48.132;11.366;2024-02-26T09:10:08;8.63;;;6.13;;
8042;SDS011;4064;48.132;11.366;2024-02-26T09:12:35;6.47;;;5.83;;
8042;SDS011;4064;48.132;11.366;2024-02-26T09:15:01;10.83;;;5.87;;
8042;SDS011;4064;48.132;11.366;2024-02-26T09:17:27;17.13;;;6.33;;
8042;SDS011;4064;48.132;11.366;2024-02-26T09:19:52;10.87;;;6.60;;
8042;SDS011;4064;48.132;11.366;2024-02-26T09:22:18;14.43;;;6.97;;
8042;SDS011;4064;48.132;11.366;2024-02-26T09:24:43;13.93;;;6.70;;
8042;SDS011;4064;48.132;11.366;2024-02-26T09:27:09;12.77;;;8.10;;
8042;SDS011;4064;48.132;11.366;2024-02-26T09:29:35;12.90;;;7.30;;
8042;SDS011;4064;48.132;11.366;2024-02-26T09:35:23;10.27;;;7.50;;
8042;SDS011;4064;48.132;11.366;2024-02-26T09:37:49;12.83;;;7.20;;
8042;SDS011;4064;48.132;11.366;2024-02-26T09:40:14;13.90;;;7.23;;
8042;SDS011;4064;48.132;11.366;2024-02-26T09:42:44;15.83;;;6.70;;
8042;SDS011;4064;48.132;11.366;2024-02-26T09:45:11;7.57;;;5.50;;
8042;SDS011;4064;48.132;11.366;2024-02-26T09:47:42;10.90;;;5.93;;
8042;SDS011;4064;48.132;11.366;2024-02-26T09:50:09;5.97;;;5.10;;
8042;SDS011;4064;48.132;11.366;2024-02-26T09:52:38;10.20;;;6.37;;
8042;SDS011;4064;48.132;11.366;2024-02-26T09:55:06;13.00;;;6.50;;
8042;SDS011;4064;48.132;11.366;2024-02-26T09:57:34;7.80;;;4.90;;
8042;SDS011;4064;48.132;11.366;2024-02-26T10:00:00;7.47;;;4.50;;
8042;SDS011;4064;48.132;11.366;2024-02-26T10:02:30;6.70;;;5.50;;
8042;SDS011;4064;48.132;11.366;2024-02-26T10:04:57;5.80;;;4.73;;
8042;SDS011;4064;48.132;11.366;2024-02-26T10:07:30;11.30;;;5.27;;
8042;SDS011;4064;48.132;11.366;2024-02-26T10:09:56;11.93;;;5.03;;
8042;SDS011;4064;48.132;11.366;2024-02-26T10:12:22;9.53;;;5.03;;
8042;SDS011;4064;48.132;11.366;2024-02-26T10:14:50;11.90;;;4.70;;
8042;SDS011;4064;48.132;11.366;2024-02-26T10:17:16;9.90;;;4.70;;
8042;SDS011;4064;48.132;11.366;2024-02-26T10:19:43;12.33;;;5.53;;
8042;SDS011;4064;48.132;11.366;2024-02-26T10:22:09;7.90;;;4.13;;
8042;SDS011;4064;48.132;11.366;2024-02-26T10:24:35;8.80;;;4.30;;
8042;SDS011;4064;48.132;11.366;2024-02-26T10:27:00;6.50;;;3.50;;
8042;SDS011;4064;48.132;11.366;2024-02-26T10:29:27;6.30;;;3.70;;
8042;SDS011;4064;48.132;11.366;2024-02-26T10:31:53;6.43;;;3.20;;
8042;SDS011;4064;48.132;11.366;2024-02-26T10:34:19;2.53;;;2.30;;
8042;SDS011;4064;48.132;11.366;2024-02-26T10:36:45;3.83;;;2.97;;
8042;SDS011;4064;48.132;11.366;2024-02-26T10:39:14;3.10;;;2.40;;
8042;SDS011;4064;48.132;11.366;2024-02-26T10:41:40;8.33;;;3.53;;
8042;SDS011;4064;48.132;11.366;2024-02-26T10:44:10;3.70;;;1.83;;
8042;SDS011;4064;48.132;11.366;2024-02-26T10:46:37;4.03;;;2.40;;
8042;SDS011;4064;48.132;11.366;2024-02-26T10:49:03;6.27;;;3.40;;
8042;SDS011;4064;48.132;11.366;2024-02-26T10:51:31;7.97;;;5.83;;
8042;SDS011;4064;48.132;11.366;2024-02-26T10:54:00;7.07;;;6.47;;
8042;SDS011;4064;48.132;11.366;2024-02-26T10:56:33;11.80;;;10.33;;
8042;SDS011;4064;48.132;11.366;2024-02-26T10:58:59;8.73;;;7.97;;
8042;SDS011;4064;48.132;11.366;2024-02-26T11:01:26;3.50;;;2.80;;
8042;SDS011;4064;48.132;11.366;2024-02-26T11:03:56;10.50;;;6.23;;
8042;SDS011;4064;48.132;11.366;2024-02-26T11:06:23;3.50;;;2.30;;
8042;SDS011;4064;48.132;11.366;2024-02-26T11:08:51;3.80;;;2.00;;
8042;SDS011;4064;48.132;11.366;2024-02-26T11:11:18;3.90;;;2.13;;
8042;SDS011;4064;48.132;11.366;2024-02-26T11:13:46;3.97;;;2.90;;
8042;SDS011;4064;48.132;11.366;2024-02-26T11:16:20;19.17;;;10.33;;
8042;SDS011;4064;48.132;11.366;2024-02-26T11:18:47;21.70;;;17.40;;
8042;SDS011;4064;48.132;11.366;2024-02-26T11:21:17;16.37;;;11.97;;
8042;SDS011;4064;48.132;11.366;2024-02-26T11:23:45;16.73;;;12.90;;
8042;SDS011;4064;48.132;11.366;2024-02-26T11:26:11;3.70;;;2.60;;
8042;SDS011;4064;48.132;11.366;2024-02-26T11:28:37;6.03;;;2.07;;
8042;SDS011;4064;48.132;11.366;2024-02-26T11:31:04;2.53;;;1.30;;
8042;SDS011;4064;48.132;11.366;2024-02-26T11:33:32;3.13;;;1.60;;
8042;SDS011;4064;48.132;11.366;2024-02-26T11:36:00;1.80;;;1.53;;
8042;SDS011;4064;48.132;11.366;2024-02-26T11:38:36;1.57;;;1.20;;
8042;SDS011;4064;48.132;11.366;2024-02-26T11:41:04;4.07;;;2.27;;
8042;SDS011;4064;48.132;11.366;2024-02-26T11:46:27;3.20;;;2.80;;
8042;SDS011;4064;48.132;11.366;2024-02-26T11:48:55;4.60;;;2.20;;
8042;SDS011;4064;48.132;11.366;2024-02-26T11:51:32;2.10;;;1.20;;
8042;SDS011;4064;48.132;11.366;2024-02-26T11:53:59;4.07;;;3.60;;
8042;SDS011;4064;48.132;11.366;2024-02-26T11:56:25;2.53;;;1.60;;
8042;SDS011;4064;48.132;11.366;2024-02-26T11:59:04;2.70;;;2.37;;
8042;SDS011;4064;48.132;11.366;2024-02-26T12:04:06;4.63;;;1.97;;
8042;SDS011;4064;48.132;11.366;2024-02-26T12:06:40;2.53;;;2.27;;
8042;SDS011;4064;48.132;11.366;2024-02-26T12:09:30;4.60;;;3.00;;
8042;SDS011;4064;48.132;11.366;2024-02-26T12:11:56;3.73;;;2.60;;
8042;SDS011;4064;48.132;11.366;2024-02-26T12:14:25;2.73;;;1.90;;
8042;SDS011;4064;48.132;11.366;2024-02-26T12:16:51;2.87;;;2.10;;
8042;SDS011;4064;48.132;11.366;2024-02-26T12:19:17;2.30;;;2.00;;
8042;SDS011;4064;48.132;11.366;2024-02-26T12:21:43;3.67;;;1.43;;
8042;SDS011;4064;48.132;11.366;2024-02-26T12:24:13;2.20;;;1.27;;
8042;SDS011;4064;48.132;11.366;2024-02-26T12:26:40;2.77;;;1.60;;
8042;SDS011;4064;48.132;11.366;2024-02-26T12:29:06;3.80;;;1.70;;
8042;SDS011;4064;48.132;11.366;2024-02-26T12:31:33;2.70;;;1.20;;
8042;SDS011;4064;48.132;11.366;2024-02-26T12:34:02;2.53;;;1.40;;
8042;SDS011;4064;48.132;11.366;2024-02-26T12:36:28;1.97;;;1.17;;
8042;SDS011;4064;48.132;11.366;2024-02-26T12:38:54;6.53;;;1.87;;
8042;SDS011;4064;48.132;11.366;2024-02-26T12:41:21;1.70;;;1.43;;
8042;SDS011;4064;48.132;11.366;2024-02-26T12:43:47;1.33;;;1.10;;
8042;SDS011;4064;48.132;11.366;2024-02-26T12:46:13;2.13;;;1.00;;
8042;SDS011;4064;48.132;11.366;2024-02-26T12:48:42;1.73;;;1.10;;
8042;SDS011;4064;48.132;11.366;2024-02-26T12:51:09;1.30;;;0.90;;
8042;SDS011;4064;48.132;11.366;2024-02-26T12:53:37;1.43;;;1.13;;
8042;SDS011;4064;48.132;11.366;2024-02-26T12:56:04;2.13;;;1.00;;
8042;SDS011;4064;48.132;11.366;2024-02-26T12:58:32;1.10;;;0.70;;
8042;SDS011;4064;48.132;11.366;2024-02-26T13:00:58;2.80;;;1.20;;
8042;SDS011;4064;48.132;11.366;2024-02-26T13:03:24;2.90;;;1.33;;
8042;SDS011;4064;48.132;11.366;2024-02-26T13:05:50;1.93;;;1.43;;
8042;SDS011;4064;48.132;11.366;2024-02-26T13:08:19;3.37;;;2.47;;
8042;SDS011;4064;48.132;11.366;2024-02-26T13:10:46;11.67;;;6.63;;
8042;SDS011;4064;48.132;11.366;2024-02-26T13:13:15;3.43;;;1.40;;
8042;SDS011;4064;48.132;11.366;2024-02-26T13:15:42;2.20;;;1.40;;
8042;SDS011;4064;48.132;11.366;2024-02-26T13:18:09;2.33;;;2.00;;
8042;SDS011;4064;48.132;11.366;2024-02-26T13:20:36;6.20;;;3.67;;
8042;SDS011;4064;48.132;11.366;2024-02-26T13:23:05;3.33;;;2.63;;
8042;SDS011;4064;48.132;11.366;2024-02-26T13:25:32;3.50;;;2.60;;
8042;SDS011;4064;48.132;11.366;2024-02-26T13:28:15;2.73;;;2.37;;
8042;SDS011;4064;48.132;11.366;2024-02-26T13:30:42;6.50;;;4.03;;
8042;SDS011;4064;48.132;11.366;2024-02-26T13:33:21;8.37;;;5.17;;
8042;SDS011;4064;48.132;11.366;2024-02-26T13:35:47;3.53;;;2.60;;
8042;SDS011;4064;48.132;11.366;2024-02-26T13:38:13;3.83;;;2.90;;
8042;SDS011;4064;48.132;11.366;2024-02-26T13:40:39;4.10;;;3.47;;
8042;SDS011;4064;48.132;11.366;2024-02-26T13:43:05;4.40;;;3.03;;
8042;SDS011;4064;48.132;11.366;2024-02-26T13:45:30;2.80;;;2.30;;
8042;SDS011;4064;48.132;11.366;2024-02-26T13:48:01;3.97;;;2.80;;
8042;SDS011;4064;48.132;11.366;2024-02-26T13:50:28;3.83;;;2.30;;
8042;SDS011;4064;48.132;11.366;2024-02-26T13:52:54;4.80;;;3.50;;
8042;SDS011;4064;48.132;11.366;2024-02-26T13:55:21;5.07;;;2.60;;
8042;SDS011;4064;48.132;11.366;2024-02-26T13:57:49;4.93;;;2.23;;
8042;SDS011;4064;48.132;11.366;2024-02-26T14:00:17;4.10;;;2.80;;
8042;SDS011;4064;48.132;11.366;2024-02-26T14:02:43;3.20;;;2.70;;
8042;SDS011;4064;48.132;11.366;2024-02-26T14:05:08;5.33;;;2.70;;
8042;SDS011;4064;48.132;11.366;2024-02-26T14:07:34;4.80;;;2.70;;
8042;SDS011;4064;48.132;11.366;2024-02-26T14:10:00;4.13;;;2.30;;
8042;SDS011;4064;48.132;11.366;2024-02-26T14:12:25;5.70;;;2.43;;
8042;SDS011;4064;48.132;11.366;2024-02-26T14:14:51;4.03;;;2.47;;
8042;SDS011;4064;48.132;11.366;2024-02-26T14:17:20;5.30;;;2.13;;
8042;SDS011;4064;48.132;11.366;2024-02-26T14:19:47;2.80;;;2.27;;
8042;SDS011;4064;48.132;11.366;2024-02-26T14:22:13;3.90;;;2.47;;
8042;SDS011;4064;48.132;11.366;2024-02-26T14:24:40;2.93;;;2.00;;
8042;SDS011;4064;48.132;11.366;2024-02-26T14:27:11;2.57;;;1.80;;
8042;SDS011;4064;48.132;11.366;2024-02-26T14:29:40;3.30;;;2.60;;
8042;SDS011;4064;48.132;11.366;2024-02-26T14:32:08;4.60;;;3.00;;
8042;SDS011;4064;48.132;11.366;2024-02-26T14:34:34;8.30;;;3.17;;
8042;SDS011;4064;48.132;11.366;2024-02-26T14:36:59;3.40;;;2.83;;
8042;SDS011;4064;48.132;11.366;2024-02-26T14:39:25;12.80;;;10.70;;
8042;SDS011;4064;48.132;11.366;2024-02-26T14:41:50;9.70;;;6.63;;
8042;SDS011;4064;48.132;11.366;2024-02-26T14:44:16;7.53;;;5.57;;
8042;SDS011;4064;48.132;11.366;2024-02-26T14:46:42;19.57;;;9.80;;
8042;SDS011;4064;48.132;11.366;2024-02-26T14:49:08;7.40;;;4.77;;
8042;SDS011;4064;48.132;11.366;2024-02-26T14:51:34;12.80;;;8.00;;
8042;SDS011;4064;48.132;11.366;2024-02-26T14:54:00;10.90;;;6.00;;
8042;SDS011;4064;48.132;11.366;2024-02-26T14:56:27;6.53;;;4.90;;
8042;SDS011;4064;48.132;11.366;2024-02-26T14:58:52;6.67;;;4.87;;
8042;SDS011;4064;48.132;11.366;2024-02-26T15:01:18;8.57;;;3.20;;
8042;SDS011;4064;48.132;11.366;2024-02-26T15:03:43;3.50;;;2.67;;
8042;SDS011;4064;48.132;11.366;2024-02-26T15:06:09;8.60;;;2.57;;